Church Rock, New Mexico
Current Conditions -  °F | °C
As of 12:53 PM on Saturday 20 Dec 2014 (Local Time) from KGUP Reporting Station
Clear Clear  
Wind Chill: 38°   Ceiling: Unl
Heat Index: 38°   Visibility: 10mi
Dew Point: 25°   Wind: 3mph
Humidity: 60%   Direction: NA
Pressure: 30.14"   Gusts: NA
Location:  35.53°N, 108.6°W
Report Text: KGUP 201953Z AUTO VRB03KT 10SM CLR 03/M04 A3014 RMK AO2 SLP231 T00331039
Loading
Personal Weather Stations






























Interactive Weather Map New forecast layout! Learn more

10-Day Weather Forecast

Advertisements
Track Severe Weather on mobile